Terminal Aerodrome Forecast
Issued by NWS

Home | Current Version | Previous Version | Text Only | Print | Product List | Glossary On
Versions: 1 2 3 4 5 6 7 8 9 10 11 12 13 14 15 16 17 18
000
FTUS44 KLZK 031700
TAFBPK
TAF
KBPK 031738Z 0318/0418 18007KT P6SM VCSH BKN025 OVC040
      TEMPO 0318/0320 OVC015
     FM032000 20007KT P6SM VCSH BKN015 OVC040
     FM040000 26006KT 6SM -RA BR BKN008 OVC015
     FM040600 35009KT 4SM -RA BR OVC005
     FM041100 36009KT 3SM -RAPLSN OVC005=

USA.gov is the U.S. government's official web portal to all federal, state and local government web resources and services.